Weather at Morrisburg Airport

Public forecast

Using degrees Celsius for public forecast. Weather courtesy of forecast.io.

Closest aviation weather report (METAR) to Morrisburg Airport

Closest report is Massena International Richards Field, 9.9 nm (18.3 km) E. Retrieved 2020/10/25 14:53 UTC (55 minutes ago):

KMSS 251453Z AUTO 04007KT 10SM CLR 03/M06 A3038 RMK AO2 SLP291 T00281056 51013

Closest aviation forecast (TAF) to Morrisburg Airport

Closest forecast is Massena International Richards Field, 9.9 nm (18.3 km) E. Retrieved 2020/10/25 12:39 UTC (3 hours ago):

TAF KMSS 251136Z 2512/2612 00000KT P6SM SCT150 FM260000 00000KT P6SM BKN120 FM260900 08005KT P6SM VCSH OVC029 FM261100 07005KT 1 1/2SM -SN BR OVC025